Time;durP1;ratioP1;P1;durP2;ratioP2;P2;SDS_P1;SDS_P2;PMS_P1;PMS_P2;Temp;Humidity;BMP_temperature;BMP_pressure;BME280_temperature;BME280_humidity;BME280_pressure;Samples;Min_cycle;Max_cycle;Signal;HPM_P1;HPM_P2
2023/08/14 00:01:51;;;;;;;6.05;2.37;;;21.60;95.30;;;;;;946229;151;27385;-76
2023/08/14 00:04:17;;;;;;;4.03;2.20;;;21.50;95.40;;;;;;954385;148;27399;-76
2023/08/14 00:06:44;;;;;;;2.80;1.90;;;21.60;95.70;;;;;;950192;148;27894;-76
2023/08/14 00:09:11;;;;;;;2.90;1.90;;;21.60;95.80;;;;;;930010;150;27456;-76
2023/08/14 00:11:37;;;;;;;3.10;1.87;;;21.50;95.90;;;;;;930445;150;28042;-76
2023/08/14 00:14:04;;;;;;;2.75;1.85;;;21.50;96.10;;;;;;929993;150;27448;-76
2023/08/14 00:16:30;;;;;;;2.62;2.00;;;21.50;96.30;;;;;;948125;148;27310;-76
2023/08/14 00:18:57;;;;;;;3.45;2.40;;;21.50;96.40;;;;;;955747;147;27350;-76
2023/08/14 00:21:24;;;;;;;2.52;1.75;;;21.50;96.50;;;;;;940345;150;27375;-76
2023/08/14 00:23:51;;;;;;;3.83;1.92;;;21.50;96.70;;;;;;951277;148;27453;-76
2023/08/14 00:26:17;;;;;;;3.37;2.50;;;21.50;96.90;;;;;;934805;150;27454;-76
2023/08/14 00:28:43;;;;;;;4.62;2.50;;;21.50;97.00;;;;;;942911;150;27431;-76
2023/08/14 00:31:10;;;;;;;5.00;1.92;;;21.50;97.10;;;;;;952375;148;27325;-76
2023/08/14 00:33:37;;;;;;;2.85;1.92;;;21.50;97.30;;;;;;953118;148;27344;-76
2023/08/14 00:36:05;;;;;;;4.25;2.00;;;21.50;97.50;;;;;;958504;148;27341;-76
2023/08/14 00:38:30;;;;;;;2.27;1.90;;;21.50;97.70;;;;;;957011;148;27326;-76
2023/08/14 00:40:57;;;;;;;2.10;2.00;;;21.50;97.70;;;;;;956235;148;27318;-76
2023/08/14 00:43:23;;;;;;;3.83;2.00;;;21.50;97.80;;;;;;955709;148;27350;-76
2023/08/14 00:45:49;;;;;;;2.52;1.90;;;21.50;98.00;;;;;;955037;148;27390;-76
2023/08/14 00:48:16;;;;;;;2.58;1.92;;;21.50;98.20;;;;;;954869;148;27339;-76
2023/08/14 00:50:43;;;;;;;2.20;1.72;;;21.50;98.30;;;;;;958711;147;27342;-76
2023/08/14 00:53:09;;;;;;;2.72;1.90;;;21.50;98.30;;;;;;956355;148;27383;-76
2023/08/14 00:55:36;;;;;;;2.52;1.90;;;21.50;98.50;;;;;;945133;150;27336;-76
2023/08/14 00:58:02;;;;;;;2.70;1.87;;;21.50;98.60;;;;;;939244;150;27325;-76
2023/08/14 01:00:29;;;;;;;2.58;1.82;;;21.50;98.80;;;;;;954895;148;27451;-76
2023/08/14 01:02:56;;;;;;;2.33;2.05;;;21.50;98.90;;;;;;957572;148;27299;-76
2023/08/14 01:05:23;;;;;;;2.47;2.10;;;21.50;99.50;;;;;;955953;148;27338;-76
2023/08/14 01:07:49;;;;;;;3.15;2.15;;;21.50;99.30;;;;;;956819;148;27428;-76
2023/08/14 01:10:15;;;;;;;3.42;2.17;;;21.50;99.30;;;;;;955890;148;27416;-74
2023/08/14 01:12:42;;;;;;;3.92;2.00;;;21.50;99.40;;;;;;955521;148;27401;-74
2023/08/14 01:15:27;;;;;;;2.08;1.98;;;21.60;99.60;;;;;;954921;148;27363;-76
2023/08/14 01:17:56;;;;;;;2.75;2.02;;;21.50;99.60;;;;;;954040;148;27354;-73
2023/08/14 01:20:23;;;;;;;2.47;1.70;;;21.60;99.40;;;;;;947233;147;27336;-73
2023/08/14 01:22:52;;;;;;;2.35;1.80;;;21.50;99.50;;;;;;946165;148;27340;-72
2023/08/14 01:25:31;;;;;;;3.12;2.05;;;21.50;99.60;;;;;;946196;148;27351;-73
2023/08/14 01:27:57;;;;;;;3.37;2.35;;;21.50;99.60;;;;;;946833;148;27381;-73
2023/08/14 01:30:24;;;;;;;2.10;1.82;;;21.50;99.70;;;;;;933427;151;28359;-75
2023/08/14 01:32:50;;;;;;;2.83;1.95;;;21.50;99.90;;;;;;934677;151;27329;-74
2023/08/14 01:35:20;;;;;;;1.92;1.77;;;21.50;99.90;;;;;;951738;148;27327;-73
2023/08/14 01:37:55;;;;;;;3.40;2.25;;;21.50;99.90;;;;;;946897;148;27356;-76
2023/08/14 01:40:33;;;;;;;2.42;2.20;;;21.50;99.90;;;;;;935570;150;28181;-74
2023/08/14 01:43:00;;;;;;;3.27;2.20;;;21.50;99.90;;;;;;946045;148;27421;-76
2023/08/14 01:45:27;;;;;;;1.95;1.75;;;21.50;99.90;;;;;;946452;148;27430;-74
2023/08/14 01:47:53;;;;;;;2.22;2.00;;;21.50;99.90;;;;;;949606;148;27453;-73
2023/08/14 01:50:20;;;;;;;2.98;2.00;;;21.50;99.90;;;;;;946755;148;27403;-73
2023/08/14 01:52:46;;;;;;;2.98;1.90;;;21.50;99.90;;;;;;945901;148;27395;-73
2023/08/14 01:55:13;;;;;;;2.58;2.20;;;21.50;99.90;;;;;;953047;148;27351;-73
2023/08/14 01:57:40;;;;;;;1.98;1.87;;;21.50;99.90;;;;;;954441;148;27342;-73
2023/08/14 02:00:09;;;;;;;3.25;2.27;;;21.40;99.90;;;;;;933012;149;27376;-73
2023/08/14 02:02:33;;;;;;;2.47;2.22;;;21.40;99.90;;;;;;951559;148;27303;-73
2023/08/14 02:04:59;;;;;;;2.90;2.62;;;21.40;99.90;;;;;;931496;150;27304;-73
2023/08/14 02:07:26;;;;;;;2.00;1.90;;;21.40;99.90;;;;;;940766;151;27342;-75
2023/08/14 02:09:53;;;;;;;2.35;2.15;;;21.40;99.90;;;;;;937107;150;27482;-73
2023/08/14 02:12:19;;;;;;;2.17;1.95;;;21.40;99.90;;;;;;936231;151;27435;-74
2023/08/14 02:14:46;;;;;;;2.98;2.40;;;21.40;99.90;;;;;;929446;150;27358;-73
2023/08/14 02:17:12;;;;;;;2.92;2.20;;;21.40;99.90;;;;;;950205;148;27327;-75
2023/08/14 02:19:39;;;;;;;3.00;2.37;;;21.40;99.90;;;;;;927118;150;27493;-75
2023/08/14 02:22:06;;;;;;;3.30;2.50;;;21.40;99.90;;;;;;936349;149;27354;-76
2023/08/14 02:24:32;;;;;;;5.10;2.67;;;21.40;99.90;;;;;;937065;149;27336;-76
2023/08/14 02:26:59;;;;;;;3.30;2.30;;;21.30;99.90;;;;;;938983;149;27324;-76
2023/08/14 02:29:25;;;;;;;3.65;2.25;;;21.40;99.90;;;;;;937698;149;27851;-75
2023/08/14 02:31:52;;;;;;;3.58;2.00;;;21.30;99.90;;;;;;936807;149;27329;-75
2023/08/14 02:34:46;;;;;;;3.10;2.25;;;21.30;99.90;;;;;;935405;151;27809;-76
2023/08/14 02:37:12;;;;;;;2.67;2.10;;;21.30;99.90;;;;;;933029;151;28368;-75
2023/08/14 02:39:39;;;;;;;1.98;1.85;;;21.20;99.90;;;;;;936643;151;27343;-75
2023/08/14 02:42:06;;;;;;;2.95;2.15;;;21.20;99.90;;;;;;935773;149;27282;-75
2023/08/14 02:44:32;;;;;;;2.17;1.98;;;21.20;99.90;;;;;;935595;149;27279;-75
2023/08/14 02:46:59;;;;;;;2.70;2.20;;;21.20;99.90;;;;;;935288;149;27361;-76
2023/08/14 02:49:25;;;;;;;2.92;2.30;;;21.20;99.90;;;;;;936854;150;27350;-76
2023/08/14 02:51:52;;;;;;;4.08;2.10;;;21.20;99.90;;;;;;936391;150;27467;-76
2023/08/14 02:54:19;;;;;;;3.77;2.72;;;21.30;99.90;;;;;;937381;150;27309;-75
2023/08/14 02:56:45;;;;;;;5.67;2.30;;;21.20;99.90;;;;;;937905;149;27375;-76
2023/08/14 02:59:12;;;;;;;3.25;2.20;;;21.30;99.90;;;;;;936129;149;27357;-76
2023/08/14 03:01:38;;;;;;;2.52;2.10;;;21.30;99.90;;;;;;914576;153;27340;-76
2023/08/14 03:04:05;;;;;;;3.98;2.30;;;21.30;99.90;;;;;;922058;152;27324;-76
2023/08/14 03:06:32;;;;;;;2.10;1.90;;;21.30;99.90;;;;;;918125;152;27357;-75
2023/08/14 03:08:58;;;;;;;2.37;2.17;;;21.20;99.90;;;;;;936976;151;27436;-75
2023/08/14 03:11:25;;;;;;;2.40;2.20;;;21.20;99.90;;;;;;935836;151;27266;-75
2023/08/14 03:13:51;;;;;;;3.20;2.30;;;21.20;99.90;;;;;;934967;149;27346;-76
2023/08/14 03:16:18;;;;;;;3.45;2.70;;;21.10;99.90;;;;;;934177;149;27417;-76
2023/08/14 03:18:44;;;;;;;2.92;2.00;;;21.10;99.90;;;;;;934453;150;27386;-76
2023/08/14 03:21:11;;;;;;;2.25;1.82;;;21.10;99.90;;;;;;918169;152;27844;-76
2023/08/14 03:23:38;;;;;;;2.72;2.40;;;21.00;99.90;;;;;;924511;152;27334;-76
2023/08/14 03:26:04;;;;;;;2.52;2.30;;;21.00;99.90;;;;;;934275;150;27460;-75
2023/08/14 03:30:51;;;;;;;3.00;2.37;;;21.00;99.90;;;;;;970901;144;38661;-72
2023/08/14 03:33:17;;;;;;;5.28;2.33;;;21.00;99.90;;;;;;960097;148;27769;-73
2023/08/14 03:35:44;;;;;;;2.55;2.05;;;21.00;99.90;;;;;;960214;148;27302;-73
2023/08/14 03:38:11;;;;;;;4.33;2.30;;;21.10;99.90;;;;;;959545;147;27406;-75
2023/08/14 03:40:37;;;;;;;2.87;2.25;;;21.10;99.90;;;;;;959830;148;27347;-72
2023/08/14 03:43:04;;;;;;;3.50;1.90;;;21.10;99.90;;;;;;960340;148;27317;-72
2023/08/14 03:45:30;;;;;;;3.37;2.20;;;21.20;99.90;;;;;;959541;147;27344;-72
2023/08/14 03:47:57;;;;;;;2.52;2.10;;;21.20;99.90;;;;;;959862;148;27231;-74
2023/08/14 03:50:24;;;;;;;3.33;2.10;;;21.20;99.90;;;;;;960381;147;27358;-75
2023/08/14 03:52:50;;;;;;;2.72;1.87;;;21.20;99.90;;;;;;960390;148;27372;-73
2023/08/14 03:55:17;;;;;;;2.70;2.12;;;21.20;99.90;;;;;;959753;147;27408;-75
2023/08/14 03:57:43;;;;;;;2.00;1.90;;;21.30;99.90;;;;;;960695;148;27267;-73
2023/08/14 04:00:10;;;;;;;3.52;2.02;;;21.30;99.90;;;;;;959609;148;27323;-75
2023/08/14 04:02:37;;;;;;;4.85;2.67;;;21.30;99.90;;;;;;959439;148;27347;-72
2023/08/14 04:05:03;;;;;;;6.95;2.75;;;21.30;99.90;;;;;;926894;152;27396;-71
2023/08/14 04:07:30;;;;;;;3.95;2.30;;;21.40;99.90;;;;;;959858;147;27913;-72
2023/08/14 04:09:56;;;;;;;4.08;2.17;;;21.50;99.90;;;;;;944241;148;27435;-74
2023/08/14 04:12:23;;;;;;;2.60;2.40;;;21.50;99.90;;;;;;942874;151;27379;-72
2023/08/14 04:14:49;;;;;;;4.22;2.62;;;21.50;99.90;;;;;;943417;149;27367;-72
2023/08/14 04:17:16;;;;;;;2.80;2.40;;;21.60;99.90;;;;;;943524;148;27765;-72
2023/08/14 04:19:43;;;;;;;3.85;1.98;;;21.60;99.90;;;;;;944080;150;27372;-72
2023/08/14 04:22:09;;;;;;;2.62;2.22;;;21.60;99.90;;;;;;944087;150;27336;-75
2023/08/14 04:24:36;;;;;;;2.58;2.00;;;21.70;99.90;;;;;;943700;151;27816;-73
2023/08/14 04:27:02;;;;;;;6.15;2.17;;;21.70;99.90;;;;;;943016;150;27329;-72
2023/08/14 04:29:29;;;;;;;4.37;2.15;;;21.70;99.90;;;;;;941523;150;27310;-72
2023/08/14 04:31:56;;;;;;;2.12;1.85;;;21.70;99.90;;;;;;938030;149;27258;-74
2023/08/14 04:34:22;;;;;;;1.80;1.70;;;21.80;99.90;;;;;;937270;151;27353;-75
2023/08/14 04:36:49;;;;;;;3.72;2.02;;;21.80;99.90;;;;;;937487;151;27447;-72
2023/08/14 04:39:15;;;;;;;2.60;2.40;;;21.90;99.90;;;;;;937163;150;27292;-72
2023/08/14 04:41:42;;;;;;;2.87;2.58;;;21.90;99.90;;;;;;936822;150;27653;-75
2023/08/14 04:44:08;;;;;;;5.17;2.85;;;21.90;99.90;;;;;;936755;150;27368;-75
2023/08/14 04:46:35;;;;;;;5.53;2.55;;;21.90;99.90;;;;;;937116;150;27345;-75
2023/08/14 04:49:02;;;;;;;3.10;2.42;;;22.00;99.90;;;;;;936623;150;27371;-75
2023/08/14 04:51:28;;;;;;;4.83;3.00;;;22.00;99.90;;;;;;936282;150;27340;-75
2023/08/14 04:53:55;;;;;;;3.58;2.40;;;22.00;99.90;;;;;;937270;150;27428;-75
2023/08/14 04:56:21;;;;;;;2.62;2.30;;;22.00;99.90;;;;;;936683;150;27428;-75
2023/08/14 04:58:48;;;;;;;4.92;2.25;;;22.10;99.90;;;;;;937214;150;27397;-75
2023/08/14 05:01:15;;;;;;;2.42;2.12;;;22.10;99.90;;;;;;936914;151;27385;-75
2023/08/14 05:03:41;;;;;;;3.85;2.27;;;22.20;99.90;;;;;;936161;150;27267;-75
2023/08/14 05:06:08;;;;;;;2.35;2.00;;;22.20;99.90;;;;;;937378;151;27350;-75
2023/08/14 05:08:34;;;;;;;2.60;2.40;;;22.30;99.90;;;;;;936744;149;27349;-75
2023/08/14 05:11:01;;;;;;;2.65;2.20;;;22.30;99.90;;;;;;937111;150;27448;-75
2023/08/14 05:13:28;;;;;;;3.12;2.20;;;22.40;99.90;;;;;;936774;151;27337;-75
2023/08/14 05:15:54;;;;;;;1.98;1.82;;;22.50;99.90;;;;;;937146;151;27282;-75
2023/08/14 05:18:21;;;;;;;2.15;1.98;;;22.50;99.90;;;;;;936387;150;27400;-75
2023/08/14 05:20:47;;;;;;;3.30;2.17;;;22.60;99.90;;;;;;936353;151;27354;-75
2023/08/14 05:23:14;;;;;;;2.47;2.27;;;22.70;99.90;;;;;;937456;150;27248;-75
2023/08/14 05:25:44;;;;;;;4.37;2.00;;;22.80;99.90;;;;;;937884;151;27298;-75
2023/08/14 05:28:10;;;;;;;3.12;2.33;;;22.90;99.90;;;;;;920742;151;27379;-75
2023/08/14 05:30:37;;;;;;;3.08;1.90;;;22.90;99.90;;;;;;927397;149;27446;-75
2023/08/14 05:33:04;;;;;;;5.22;2.45;;;23.00;99.90;;;;;;938413;149;27385;-75
2023/08/14 05:35:30;;;;;;;3.77;2.35;;;23.10;99.90;;;;;;939118;149;27323;-75
2023/08/14 05:37:57;;;;;;;3.80;2.37;;;23.20;99.90;;;;;;953932;147;27448;-75
2023/08/14 05:40:23;;;;;;;1.98;1.77;;;23.30;99.90;;;;;;956540;147;27364;-75
2023/08/14 05:43:04;;;;;;;2.72;2.15;;;23.40;99.90;;;;;;955048;147;27355;-75
2023/08/14 05:45:28;;;;;;;2.22;1.77;;;23.50;99.90;;;;;;936896;150;27405;-75
2023/08/14 05:47:55;;;;;;;2.70;1.90;;;23.50;99.90;;;;;;954554;147;27472;-75
2023/08/14 05:50:22;;;;;;;2.10;1.80;;;23.60;99.90;;;;;;954626;147;27352;-72
2023/08/14 05:52:48;;;;;;;2.77;2.40;;;23.70;99.90;;;;;;940050;149;27331;-75
2023/08/14 05:55:15;;;;;;;2.42;1.45;;;23.80;99.90;;;;;;955336;148;27375;-72
2023/08/14 05:57:41;;;;;;;1.95;1.85;;;23.90;99.90;;;;;;954667;148;27373;-72
2023/08/14 06:00:10;;;;;;;3.90;2.50;;;24.00;99.90;;;;;;939660;149;27321;-73
2023/08/14 06:02:35;;;;;;;3.02;2.47;;;24.20;99.90;;;;;;936975;149;27337;-73
2023/08/14 06:05:02;;;;;;;3.25;1.77;;;24.40;99.90;;;;;;954584;147;27322;-75
2023/08/14 06:07:28;;;;;;;3.58;2.20;;;24.50;99.90;;;;;;955500;147;27347;-73
2023/08/14 06:09:55;;;;;;;3.60;2.00;;;24.80;99.90;;;;;;937713;150;27369;-73
2023/08/14 06:12:21;;;;;;;3.55;2.17;;;24.90;99.80;;;;;;937785;150;27356;-73
2023/08/14 06:14:48;;;;;;;4.10;2.33;;;25.10;99.50;;;;;;954181;147;27659;-75
2023/08/14 06:17:14;;;;;;;4.00;1.80;;;25.30;98.90;;;;;;954509;147;27424;-72
2023/08/14 06:19:41;;;;;;;2.25;1.85;;;25.40;98.30;;;;;;939366;150;27418;-72
2023/08/14 06:22:08;;;;;;;4.40;2.60;;;25.50;98.00;;;;;;939165;150;27324;-72
2023/08/14 06:24:34;;;;;;;3.15;2.25;;;25.70;97.80;;;;;;937765;150;27370;-74
2023/08/14 06:27:01;;;;;;;3.45;2.37;;;25.80;97.70;;;;;;955311;147;27368;-72
2023/08/14 06:29:27;;;;;;;3.72;2.15;;;26.00;97.80;;;;;;953858;147;27348;-72
2023/08/14 06:31:54;;;;;;;3.02;2.20;;;26.20;97.80;;;;;;939952;149;27355;-71
2023/08/14 06:34:20;;;;;;;2.62;2.42;;;26.40;97.60;;;;;;952833;148;27334;-71
2023/08/14 06:36:47;;;;;;;4.50;2.33;;;26.70;97.10;;;;;;954614;147;27408;-74
2023/08/14 06:39:14;;;;;;;4.80;2.10;;;27.00;96.90;;;;;;936892;150;27463;-74
2023/08/14 06:41:40;;;;;;;4.80;1.98;;;27.30;97.10;;;;;;936960;149;27297;-72
2023/08/14 06:44:10;;;;;;;3.47;1.82;;;27.80;97.70;;;;;;953350;147;27324;-73
2023/08/14 06:46:36;;;;;;;3.85;2.00;;;28.20;96.20;;;;;;954712;148;27364;-73
2023/08/14 06:49:03;;;;;;;2.87;1.80;;;28.70;94.50;;;;;;957042;147;27363;-71
2023/08/14 06:51:29;;;;;;;3.58;1.98;;;29.10;92.60;;;;;;938456;149;28379;-71
2023/08/14 06:53:56;;;;;;;2.60;2.10;;;29.60;91.60;;;;;;954230;147;27336;-72
2023/08/14 06:56:22;;;;;;;1.85;1.75;;;30.10;91.50;;;;;;956140;147;27312;-72
2023/08/14 06:58:49;;;;;;;1.95;1.82;;;30.60;90.80;;;;;;937471;150;27430;-74
2023/08/14 07:01:16;;;;;;;2.15;1.70;;;31.10;88.60;;;;;;933954;151;27378;-74
2023/08/14 07:03:42;;;;;;;2.58;1.77;;;31.60;84.20;;;;;;954029;147;27382;-73
2023/08/14 07:06:09;;;;;;;1.67;1.57;;;32.00;79.10;;;;;;939593;149;27351;-74
2023/08/14 07:08:36;;;;;;;3.52;2.20;;;32.20;75.30;;;;;;937963;150;27428;-74
2023/08/14 07:11:02;;;;;;;1.82;1.72;;;32.30;74.20;;;;;;948559;151;28004;-74
2023/08/14 07:13:29;;;;;;;2.45;2.05;;;32.30;73.00;;;;;;936566;150;28413;-73
2023/08/14 07:15:55;;;;;;;3.47;1.77;;;32.20;71.20;;;;;;953949;147;27307;-73
2023/08/14 07:18:22;;;;;;;3.00;1.72;;;32.10;71.30;;;;;;940466;149;27449;-74
2023/08/14 07:20:48;;;;;;;1.85;1.75;;;32.10;72.00;;;;;;954877;147;27381;-74
2023/08/14 07:23:15;;;;;;;2.25;1.90;;;32.30;74.40;;;;;;954141;147;27428;-74
2023/08/14 07:25:42;;;;;;;3.17;1.70;;;32.70;75.70;;;;;;955089;147;27403;-74
2023/08/14 07:28:08;;;;;;;3.17;1.80;;;33.30;76.70;;;;;;953084;147;26356;-74
2023/08/14 07:30:35;;;;;;;3.27;1.60;;;34.10;76.60;;;;;;953009;149;26263;-74
2023/08/14 07:33:01;;;;;;;4.50;1.50;;;35.00;75.70;;;;;;950993;147;26923;-74
2023/08/14 07:35:28;;;;;;;1.95;1.75;;;35.90;73.90;;;;;;947740;148;26256;-74
2023/08/14 07:37:55;;;;;;;2.25;1.42;;;36.90;71.00;;;;;;947427;149;26314;-74
2023/08/14 07:40:21;;;;;;;3.12;1.60;;;37.80;67.50;;;;;;948129;149;26350;-74
2023/08/14 07:42:48;;;;;;;1.60;1.50;;;38.60;64.50;;;;;;949892;148;26244;-75
2023/08/14 07:45:14;;;;;;;1.60;1.50;;;39.30;62.30;;;;;;922861;151;26325;-74
2023/08/14 07:47:41;;;;;;;2.08;1.90;;;40.00;60.30;;;;;;947278;149;26301;-74
2023/08/14 07:50:07;;;;;;;1.70;1.60;;;40.60;58.40;;;;;;948080;148;26289;-74
2023/08/14 07:52:34;;;;;;;1.60;1.50;;;41.20;57.20;;;;;;949849;149;26221;-74
2023/08/14 07:55:01;;;;;;;2.42;1.80;;;41.50;55.50;;;;;;930318;151;26649;-75
2023/08/14 07:57:27;;;;;;;2.02;1.80;;;41.70;53.60;;;;;;947430;149;26288;-74
2023/08/14 07:59:54;;;;;;;2.52;1.85;;;41.70;52.90;;;;;;948086;149;26276;-74
2023/08/14 08:02:20;;;;;;;2.00;1.70;;;41.70;51.90;;;;;;948113;149;26283;-74
2023/08/14 08:04:47;;;;;;;1.47;1.37;;;41.70;52.50;;;;;;947194;148;26366;-74
2023/08/14 08:07:14;;;;;;;2.85;1.37;;;41.80;52.50;;;;;;948068;148;26353;-74
2023/08/14 08:09:40;;;;;;;3.87;1.62;;;42.20;52.70;;;;;;933009;150;26293;-74
2023/08/14 08:12:07;;;;;;;4.50;1.72;;;42.60;52.30;;;;;;932619;151;26396;-74
2023/08/14 08:14:36;;;;;;;2.67;1.57;;;43.00;51.70;;;;;;948915;148;26180;-74
2023/08/14 08:17:03;;;;;;;1.60;1.50;;;43.40;50.70;;;;;;947952;148;26279;-74
2023/08/14 08:19:29;;;;;;;2.20;1.70;;;43.60;49.60;;;;;;930799;151;26275;-74
2023/08/14 08:21:56;;;;;;;2.92;1.87;;;43.60;48.50;;;;;;932661;151;26313;-75
2023/08/14 08:24:22;;;;;;;2.00;1.90;;;43.40;47.70;;;;;;948522;148;26301;-74
2023/08/14 08:26:49;;;;;;;2.98;1.82;;;43.20;47.10;;;;;;949101;148;26267;-74
2023/08/14 08:29:16;;;;;;;2.22;1.57;;;42.80;46.70;;;;;;925799;152;26407;-74
2023/08/14 08:31:42;;;;;;;3.45;1.90;;;42.30;46.70;;;;;;939763;149;26623;-74
2023/08/14 08:34:09;;;;;;;2.70;1.75;;;41.70;46.80;;;;;;917159;151;26297;-75
2023/08/14 08:36:35;;;;;;;2.33;1.67;;;41.20;47.00;;;;;;916008;153;26222;-74
2023/08/14 08:39:02;;;;;;;2.17;1.85;;;40.70;47.30;;;;;;928350;151;26280;-73
2023/08/14 08:41:31;;;;;;;2.65;1.87;;;40.20;47.90;;;;;;928742;151;26339;-74
2023/08/14 08:44:00;;;;;;;2.95;1.95;;;39.70;48.20;;;;;;919587;152;26666;-74
2023/08/14 08:46:27;;;;;;;3.92;2.33;;;39.40;48.90;;;;;;931711;150;26256;-73
2023/08/14 08:48:54;;;;;;;1.92;1.82;;;39.10;49.60;;;;;;933176;150;26374;-74
2023/08/14 08:51:20;;;;;;;2.20;2.00;;;38.90;50.00;;;;;;935071;149;26210;-74
2023/08/14 08:53:47;;;;;;;2.00;1.80;;;38.70;50.10;;;;;;932928;150;26295;-74
2023/08/14 08:56:13;;;;;;;3.42;2.17;;;38.60;50.20;;;;;;935388;149;26363;-75
2023/08/14 08:58:40;;;;;;;2.58;1.85;;;38.50;50.00;;;;;;935387;149;26274;-74
2023/08/14 09:01:06;;;;;;;2.67;2.08;;;38.30;50.00;;;;;;935191;149;26334;-74
2023/08/14 09:03:33;;;;;;;1.80;1.70;;;38.00;50.20;;;;;;933782;149;26390;-75
2023/08/14 09:06:00;;;;;;;1.90;1.80;;;37.80;50.40;;;;;;934366;149;26324;-75
2023/08/14 09:08:26;;;;;;;2.20;2.00;;;37.60;50.80;;;;;;913962;152;26828;-75
2023/08/14 09:10:53;;;;;;;2.10;1.90;;;37.60;51.30;;;;;;915693;152;26348;-75
2023/08/14 09:13:19;;;;;;;2.92;1.90;;;37.50;51.50;;;;;;914471;153;26303;-75
2023/08/14 09:15:46;;;;;;;2.40;2.20;;;37.50;51.50;;;;;;914536;155;26389;-75
2023/08/14 09:18:13;;;;;;;3.98;2.15;;;37.40;51.30;;;;;;933568;149;26268;-75
2023/08/14 09:20:39;;;;;;;2.35;2.15;;;37.30;51.00;;;;;;936456;149;26281;-75
2023/08/14 09:23:06;;;;;;;2.17;1.98;;;37.20;50.90;;;;;;935104;149;26329;-75
2023/08/14 09:25:32;;;;;;;2.08;1.98;;;37.00;51.00;;;;;;933230;150;27374;-75
2023/08/14 09:27:59;;;;;;;2.30;2.10;;;36.80;51.40;;;;;;915128;153;26260;-76
2023/08/14 09:30:26;;;;;;;1.98;1.77;;;36.60;51.50;;;;;;928735;152;27476;-75
2023/08/14 09:32:52;;;;;;;3.47;2.08;;;36.40;51.80;;;;;;928116;152;26290;-75
2023/08/14 09:35:19;;;;;;;5.95;2.17;;;36.30;52.10;;;;;;924112;154;27349;-75
2023/08/14 09:37:45;;;;;;;2.90;2.02;;;36.30;52.50;;;;;;938408;149;26302;-75
2023/08/14 09:40:15;;;;;;;2.72;2.10;;;36.30;52.70;;;;;;941992;150;27395;-75
2023/08/14 09:42:39;;;;;;;1.85;1.75;;;36.20;52.70;;;;;;936617;151;27509;-74
2023/08/14 09:45:05;;;;;;;2.15;1.52;;;36.30;53.00;;;;;;937710;152;26285;-75
2023/08/14 09:47:32;;;;;;;2.47;2.00;;;36.30;53.20;;;;;;941077;150;26323;-75
2023/08/14 09:49:59;;;;;;;2.20;2.00;;;36.50;53.20;;;;;;937257;152;26322;-75
2023/08/14 09:52:25;;;;;;;2.30;1.85;;;36.70;53.40;;;;;;937028;152;26312;-75
2023/08/14 09:54:52;;;;;;;2.15;1.95;;;37.10;54.00;;;;;;936509;150;26378;-75
2023/08/14 09:57:18;;;;;;;2.10;1.90;;;37.40;54.10;;;;;;937284;151;26245;-76
2023/08/14 09:59:45;;;;;;;2.05;1.85;;;37.90;53.70;;;;;;920848;153;26311;-75
2023/08/14 10:02:14;;;;;;;1.77;1.67;;;38.50;53.10;;;;;;937517;150;26383;-75
2023/08/14 10:04:41;;;;;;;2.20;1.98;;;38.90;52.60;;;;;;917305;152;27980;-76
2023/08/14 10:07:07;;;;;;;3.35;2.17;;;39.40;52.30;;;;;;935730;150;26394;-75
2023/08/14 10:09:34;;;;;;;1.72;1.62;;;39.80;51.60;;;;;;927408;151;27130;-76
2023/08/14 10:12:03;;;;;;;1.70;1.45;;;40.20;51.20;;;;;;920880;153;26273;-76
2023/08/14 10:14:30;;;;;;;4.40;1.70;;;40.60;50.40;;;;;;914810;153;26317;-75
2023/08/14 10:16:56;;;;;;;2.62;1.67;;;40.90;49.70;;;;;;920311;155;26288;-75
2023/08/14 10:19:23;;;;;;;2.55;1.80;;;41.10;49.10;;;;;;935507;151;26195;-75
2023/08/14 10:21:49;;;;;;;1.92;1.75;;;41.30;48.30;;;;;;936689;150;26345;-76
2023/08/14 10:24:16;;;;;;;1.80;1.70;;;41.40;47.60;;;;;;936477;151;26276;-76
2023/08/14 10:26:43;;;;;;;1.70;1.60;;;41.40;47.10;;;;;;937690;150;26252;-75
2023/08/14 10:29:09;;;;;;;2.50;1.70;;;41.30;46.90;;;;;;936720;151;26210;-76
2023/08/14 10:31:36;;;;;;;2.10;1.85;;;41.10;46.70;;;;;;918912;152;26268;-76
2023/08/14 10:34:02;;;;;;;1.77;1.67;;;41.00;47.00;;;;;;936473;148;26395;-75
2023/08/14 10:36:29;;;;;;;2.08;1.87;;;40.80;47.10;;;;;;935362;149;26289;-75
2023/08/14 10:38:56;;;;;;;1.65;1.55;;;40.70;47.10;;;;;;936204;149;26229;-75
2023/08/14 10:41:22;;;;;;;1.80;1.70;;;40.50;47.10;;;;;;931328;149;26342;-75
2023/08/14 10:43:51;;;;;;;3.17;1.80;;;40.40;47.20;;;;;;915352;153;26277;-76
2023/08/14 10:46:15;;;;;;;2.12;2.00;;;40.20;47.20;;;;;;931676;150;26277;-75
2023/08/14 10:48:42;;;;;;;1.90;1.80;;;40.10;47.20;;;;;;928519;151;26253;-76
2023/08/14 10:51:09;;;;;;;2.55;1.77;;;40.00;47.20;;;;;;928290;152;26296;-75
2023/08/14 10:53:35;;;;;;;2.27;2.10;;;39.90;47.40;;;;;;930326;152;26192;-76
2023/08/14 10:56:02;;;;;;;2.98;1.90;;;39.90;47.40;;;;;;929591;152;26237;-76
2023/08/14 10:58:38;;;;;;;3.25;2.20;;;39.80;47.60;;;;;;928784;152;26385;-76
2023/08/14 11:01:03;;;;;;;4.15;2.12;;;39.80;48.00;;;;;;929820;152;26260;-75
2023/08/14 11:03:32;;;;;;;2.10;1.90;;;39.80;48.00;;;;;;927761;152;26281;-76
2023/08/14 11:05:59;;;;;;;1.87;1.72;;;39.80;47.80;;;;;;928944;152;27472;-75
2023/08/14 11:08:26;;;;;;;1.77;1.67;;;39.80;48.00;;;;;;928700;150;26412;-76
2023/08/14 11:10:52;;;;;;;2.80;1.87;;;39.80;48.20;;;;;;928328;151;26246;-75
2023/08/14 11:13:19;;;;;;;2.52;1.90;;;39.80;48.00;;;;;;929783;152;27367;-76
2023/08/14 11:15:45;;;;;;;1.70;1.60;;;39.90;47.90;;;;;;928832;152;26844;-76
2023/08/14 11:18:12;;;;;;;2.42;2.05;;;39.90;48.00;;;;;;929487;152;27766;-75
2023/08/14 11:20:39;;;;;;;3.40;1.70;;;39.90;47.30;;;;;;929080;152;26301;-75
2023/08/14 11:23:05;;;;;;;2.00;1.87;;;39.90;47.30;;;;;;929720;152;26367;-76
2023/08/14 11:25:32;;;;;;;1.82;1.72;;;39.80;47.50;;;;;;928369;151;26269;-76
2023/08/14 11:27:58;;;;;;;1.77;1.60;;;39.80;47.50;;;;;;928987;151;26298;-76
2023/08/14 11:30:25;;;;;;;3.77;1.90;;;39.70;47.30;;;;;;929363;152;26350;-75
2023/08/14 11:32:52;;;;;;;1.60;1.50;;;39.60;47.00;;;;;;929201;152;26266;-75
2023/08/14 11:35:18;;;;;;;1.80;1.70;;;39.50;47.10;;;;;;926152;151;26756;-76
2023/08/14 11:37:47;;;;;;;1.67;1.57;;;39.30;47.30;;;;;;940219;150;26333;-76
2023/08/14 11:40:15;;;;;;;2.12;1.80;;;39.20;47.60;;;;;;918392;152;27911;-74
2023/08/14 11:42:40;;;;;;;1.80;1.62;;;39.10;47.80;;;;;;916839;154;26274;-74
2023/08/14 11:45:07;;;;;;;2.55;1.45;;;39.00;47.60;;;;;;934492;151;27287;-75
2023/08/14 11:47:33;;;;;;;2.08;1.90;;;38.90;47.60;;;;;;936908;151;26354;-74
2023/08/14 11:50:00;;;;;;;1.50;1.40;;;38.80;47.60;;;;;;918187;155;26290;-74
2023/08/14 11:52:27;;;;;;;5.15;3.05;;;38.60;47.40;;;;;;914084;153;26257;-74
2023/08/14 11:54:56;;;;;;;8.18;4.58;;;38.50;47.30;;;;;;936937;150;26222;-74
2023/08/14 11:57:26;;;;;;;3.42;2.50;;;38.30;47.50;;;;;;915651;154;26296;-76
2023/08/14 11:59:55;;;;;;;2.50;2.17;;;38.10;47.50;;;;;;920157;153;26374;-73
2023/08/14 12:02:22;;;;;;;2.22;1.90;;;37.90;48.20;;;;;;936946;151;26304;-74
2023/08/14 12:05:00;;;;;;;2.10;1.90;;;37.80;48.40;;;;;;937431;152;26256;-74
2023/08/14 12:07:26;;;;;;;1.57;1.47;;;37.70;48.60;;;;;;937308;150;26271;-74
2023/08/14 12:09:53;;;;;;;4.75;2.10;;;37.50;48.60;;;;;;922502;152;26275;-74
2023/08/14 12:12:20;;;;;;;1.77;1.67;;;37.40;48.90;;;;;;934932;151;27357;-74
2023/08/14 12:14:46;;;;;;;2.90;2.10;;;37.40;49.00;;;;;;936412;152;26256;-74
2023/08/14 12:17:13;;;;;;;1.92;1.72;;;37.30;49.10;;;;;;937906;150;27360;-77
2023/08/14 12:19:39;;;;;;;3.02;2.00;;;37.20;49.30;;;;;;936675;151;26265;-74
2023/08/14 12:22:09;;;;;;;3.30;1.80;;;37.20;48.80;;;;;;918521;154;26314;-75
2023/08/14 12:24:41;;;;;;;2.65;2.02;;;37.10;49.60;;;;;;935635;151;26226;-73
2023/08/14 12:27:14;;;;;;;2.27;2.08;;;37.00;49.70;;;;;;937223;151;27326;-77
2023/08/14 12:29:40;;;;;;;1.87;1.72;;;37.00;50.00;;;;;;937035;151;27443;-76
2023/08/14 12:32:07;;;;;;;1.92;1.82;;;36.90;50.00;;;;;;937183;150;26231;-74
2023/08/14 12:34:33;;;;;;;2.30;1.67;;;36.80;49.80;;;;;;937293;152;27423;-75
2023/08/14 12:37:00;;;;;;;3.12;1.77;;;36.80;49.80;;;;;;929264;151;27395;-76
2023/08/14 12:39:27;;;;;;;2.20;1.70;;;36.80;49.90;;;;;;934386;149;26253;-74
2023/08/14 12:41:56;;;;;;;2.17;1.98;;;36.70;49.80;;;;;;934163;149;28433;-74
2023/08/14 12:44:23;;;;;;;2.10;1.90;;;36.60;49.90;;;;;;936577;149;27330;-74
2023/08/14 12:46:49;;;;;;;3.42;2.00;;;36.50;49.80;;;;;;917352;152;27350;-74
2023/08/14 12:49:16;;;;;;;2.00;1.72;;;36.40;50.00;;;;;;934650;149;27546;-74